Time;durP1;ratioP1;P1;durP2;ratioP2;P2;SDS_P1;SDS_P2;PMS_P1;PMS_P2;Temp;Humidity;BMP_temperature;BMP_pressure;BME280_temperature;BME280_humidity;BME280_pressure;Samples;Min_cycle;Max_cycle;Signal;HPM_P1;HPM_P2
2023/11/16 00:00:48;;;;;;;0.30;0.30;;;8.60;99.90;;;;;;5009206;28;20041;-84
2023/11/16 00:03:13;;;;;;;;;;;8.60;99.90;;;;;;5018472;28;20068;-83
2023/11/16 00:05:43;;;;;;;0.52;0.52;;;8.60;99.90;;;;;;5056369;28;19916;-80
2023/11/16 00:08:10;;;;;;;0.38;0.38;;;8.70;99.90;;;;;;5032351;28;20040;-86
2023/11/16 00:10:36;;;;;;;0.40;0.40;;;8.70;99.90;;;;;;5020502;28;20052;-85
2023/11/16 00:13:02;;;;;;;0.40;0.40;;;8.70;99.90;;;;;;5038352;28;20048;-82
2023/11/16 00:15:32;;;;;;;0.40;0.40;;;8.60;99.90;;;;;;5048157;28;20032;-85
2023/11/16 00:17:58;;;;;;;0.38;0.38;;;8.60;99.90;;;;;;5044902;28;20418;-83
2023/11/16 00:20:23;;;;;;;0.30;0.30;;;8.60;99.90;;;;;;5037788;28;20049;-82
2023/11/16 00:22:49;;;;;;;0.82;0.82;;;8.60;99.90;;;;;;5036711;28;20041;-86
2023/11/16 00:25:16;;;;;;;0.50;0.50;;;8.60;99.90;;;;;;5034949;28;20406;-83
2023/11/16 00:27:43;;;;;;;0.40;0.40;;;8.50;99.90;;;;;;5043897;28;20108;-83
2023/11/16 00:30:09;;;;;;;2.03;0.50;;;8.60;99.90;;;;;;5036191;28;20059;-84
2023/11/16 00:32:35;;;;;;;0.40;0.40;;;8.70;99.90;;;;;;5050753;28;20051;-85
2023/11/16 00:35:01;;;;;;;0.40;0.40;;;8.70;99.90;;;;;;5024469;28;20029;-85
2023/11/16 00:37:26;;;;;;;2.45;1.30;;;8.70;99.90;;;;;;5049926;28;20051;-87
2023/11/16 00:39:57;;;;;;;0.38;0.38;;;8.80;99.90;;;;;;5058631;28;20047;-84
2023/11/16 00:42:23;;;;;;;0.40;0.40;;;8.80;99.90;;;;;;5054958;28;20520;-84
2023/11/16 00:44:50;;;;;;;0.40;0.40;;;8.80;99.90;;;;;;5053448;28;20049;-83
2023/11/16 00:47:18;;;;;;;0.40;0.40;;;8.80;99.90;;;;;;5050478;28;20053;-85
2023/11/16 00:49:47;;;;;;;4.40;2.15;;;8.80;99.90;;;;;;5041033;28;20137;-82
2023/11/16 00:52:13;;;;;;;0.30;0.30;;;8.80;99.90;;;;;;5030309;28;20028;-82
2023/11/16 00:54:39;;;;;;;0.30;0.30;;;8.80;99.90;;;;;;5042021;28;20480;-84
2023/11/16 00:57:05;;;;;;;0.40;0.40;;;8.80;99.90;;;;;;5023374;28;20719;-82
2023/11/16 00:59:31;;;;;;;;;;;8.80;99.90;;;;;;5038617;28;20048;-82
2023/11/16 01:01:59;;;;;;;0.40;0.40;;;8.70;99.90;;;;;;5057477;28;19917;-82
2023/11/16 01:04:25;;;;;;;0.55;0.55;;;8.70;99.90;;;;;;5058848;28;20417;-82
2023/11/16 01:06:51;;;;;;;0.45;0.45;;;8.70;99.90;;;;;;5068584;28;20094;-79
2023/11/16 01:09:17;;;;;;;0.55;0.55;;;8.70;99.90;;;;;;5059738;28;20082;-83
2023/11/16 01:11:43;;;;;;;0.35;0.35;;;8.60;99.90;;;;;;5021308;28;20053;-83
2023/11/16 01:14:09;;;;;;;0.40;0.40;;;8.60;99.90;;;;;;5056964;28;20043;-84
2023/11/16 01:16:41;;;;;;;0.40;0.40;;;8.50;99.90;;;;;;5060879;28;20033;-83
2023/11/16 01:19:13;;;;;;;0.47;0.47;;;8.50;99.90;;;;;;5033801;28;20076;-83
2023/11/16 01:21:50;;;;;;;0.30;0.30;;;8.40;99.90;;;;;;5022339;28;20029;-82
2023/11/16 01:24:18;;;;;;;1.00;0.85;;;8.40;99.90;;;;;;5039353;28;20076;-84
2023/11/16 01:26:43;;;;;;;0.32;0.32;;;8.40;99.90;;;;;;5056301;28;20041;-84
2023/11/16 01:29:10;;;;;;;0.50;0.50;;;8.30;99.90;;;;;;5047502;28;20102;-84
2023/11/16 01:31:39;;;;;;;0.40;0.40;;;8.30;99.90;;;;;;5039992;28;20398;-84
2023/11/16 01:34:09;;;;;;;0.40;0.40;;;8.20;99.90;;;;;;5030305;28;20041;-84
2023/11/16 01:36:36;;;;;;;0.47;0.47;;;8.10;99.90;;;;;;5040344;28;20072;-82
2023/11/16 01:39:03;;;;;;;0.40;0.40;;;8.10;99.90;;;;;;5056885;28;20129;-82
2023/11/16 01:41:28;;;;;;;;;;;8.00;99.90;;;;;;5062403;28;20466;-81
2023/11/16 01:43:56;;;;;;;0.40;0.40;;;7.90;99.90;;;;;;5054375;28;20016;-84
2023/11/16 01:46:22;;;;;;;0.45;0.45;;;7.70;99.90;;;;;;5017399;28;20073;-79
2023/11/16 01:48:49;;;;;;;0.30;0.30;;;7.90;99.90;;;;;;5036259;28;20048;-82
2023/11/16 01:51:16;;;;;;;0.30;0.30;;;7.80;99.90;;;;;;5037542;28;20123;-83
2023/11/16 01:53:48;;;;;;;0.43;0.43;;;;;;;;;;5051402;28;20036;-81
2023/11/16 01:56:15;;;;;;;0.50;0.50;;;;;;;;;;5049487;28;20098;-82
2023/11/16 01:58:47;;;;;;;0.47;0.47;;;7.50;99.90;;;;;;5064958;28;20060;-81
2023/11/16 02:01:13;;;;;;;0.70;0.70;;;7.50;99.90;;;;;;5054633;28;20079;-81
2023/11/16 02:03:39;;;;;;;0.80;0.80;;;7.40;99.90;;;;;;5037759;28;20036;-82
2023/11/16 02:06:05;;;;;;;0.50;0.50;;;;;;;;;;5036004;28;20114;-80
2023/11/16 02:08:35;;;;;;;0.38;0.38;;;7.30;99.90;;;;;;5052860;28;20147;-81
2023/11/16 02:11:01;;;;;;;0.40;0.40;;;7.30;99.90;;;;;;5022991;28;20057;-82
2023/11/16 02:13:26;;;;;;;0.50;0.50;;;7.20;99.90;;;;;;5018773;28;20383;-81
2023/11/16 02:15:56;;;;;;;0.50;0.50;;;7.20;99.90;;;;;;5053728;28;20478;-81
2023/11/16 02:18:22;;;;;;;0.40;0.40;;;7.10;99.90;;;;;;5026489;28;20135;-83
2023/11/16 02:20:49;;;;;;;0.40;0.40;;;7.10;99.90;;;;;;5060288;28;20123;-81
2023/11/16 02:23:19;;;;;;;0.40;0.40;;;7.00;99.90;;;;;;5047178;28;20495;-83
2023/11/16 02:25:47;;;;;;;0.40;0.40;;;7.00;99.90;;;;;;5059128;28;20037;-84
2023/11/16 02:28:13;;;;;;;0.50;0.50;;;7.00;99.90;;;;;;5040792;28;20041;-84
2023/11/16 02:30:39;;;;;;;;;;;7.00;99.90;;;;;;5032396;28;20036;-85
2023/11/16 02:33:05;;;;;;;0.40;0.40;;;7.00;99.90;;;;;;5043993;28;20255;-86
2023/11/16 02:35:35;;;;;;;0.50;0.50;;;7.00;99.90;;;;;;5052564;28;20088;-82
2023/11/16 02:38:01;;;;;;;0.50;0.50;;;7.00;99.90;;;;;;5039289;28;20132;-83
2023/11/16 02:40:27;;;;;;;0.50;0.50;;;7.00;99.90;;;;;;5040320;28;20037;-83
2023/11/16 02:42:53;;;;;;;0.45;0.45;;;6.90;99.90;;;;;;5034197;28;20040;-84
2023/11/16 02:45:22;;;;;;;0.50;0.50;;;6.80;99.90;;;;;;5026982;28;20051;-84
2023/11/16 02:47:52;;;;;;;1.25;1.25;;;6.70;99.90;;;;;;5057620;28;20052;-84
2023/11/16 02:50:20;;;;;;;0.50;0.50;;;6.70;99.90;;;;;;5027031;28;20059;-82
2023/11/16 02:52:46;;;;;;;0.40;0.40;;;6.70;99.90;;;;;;5049147;28;20041;-84
2023/11/16 02:55:14;;;;;;;0.50;0.50;;;6.70;99.90;;;;;;5020170;28;20033;-84
2023/11/16 02:57:40;;;;;;;0.60;0.60;;;6.70;99.90;;;;;;5019286;28;20432;-86
2023/11/16 03:00:12;;;;;;;1.13;0.95;;;6.70;99.90;;;;;;5041002;28;20127;-83
2023/11/16 03:02:40;;;;;;;0.52;0.52;;;6.70;99.90;;;;;;5017747;28;20048;-85
2023/11/16 03:05:07;;;;;;;0.50;0.50;;;6.80;99.90;;;;;;5024834;28;20037;-83
2023/11/16 03:07:35;;;;;;;0.50;0.50;;;6.70;99.90;;;;;;5019752;28;20124;-81
2023/11/16 03:10:01;;;;;;;0.32;0.32;;;6.80;99.90;;;;;;5024029;28;20048;-83
2023/11/16 03:12:27;;;;;;;;;;;6.80;99.90;;;;;;5041560;28;20195;-83
2023/11/16 03:14:53;;;;;;;0.40;0.40;;;6.70;99.90;;;;;;5023853;28;20305;-82
2023/11/16 03:17:20;;;;;;;;;;;6.50;99.90;;;;;;5053671;28;20446;-81
2023/11/16 03:19:46;;;;;;;1.45;0.65;;;6.50;99.90;;;;;;5048916;28;20356;-83
2023/11/16 03:22:13;;;;;;;0.50;0.50;;;6.50;99.90;;;;;;5018994;28;20385;-83
2023/11/16 03:24:39;;;;;;;0.50;0.50;;;6.20;99.90;;;;;;5033972;28;20043;-84
2023/11/16 03:27:05;;;;;;;0.47;0.47;;;6.20;99.90;;;;;;5031874;28;20120;-83
2023/11/16 03:29:31;;;;;;;0.60;0.60;;;6.20;99.90;;;;;;5019112;28;20037;-83
2023/11/16 03:31:56;;;;;;;0.60;0.60;;;6.10;99.90;;;;;;5061573;28;20045;-83
2023/11/16 03:34:22;;;;;;;0.50;0.50;;;6.10;99.90;;;;;;5023061;28;20042;-84
2023/11/16 03:36:48;;;;;;;0.40;0.40;;;6.10;99.90;;;;;;5021673;28;20055;-86
2023/11/16 03:39:17;;;;;;;0.50;0.50;;;6.10;99.90;;;;;;5021927;28;20041;-82
2023/11/16 03:41:43;;;;;;;0.60;0.60;;;6.10;99.90;;;;;;5029687;28;20069;-82
2023/11/16 03:44:09;;;;;;;0.57;0.57;;;6.10;99.90;;;;;;5067004;28;20568;-81
2023/11/16 03:46:35;;;;;;;0.50;0.50;;;6.10;99.90;;;;;;5018140;28;20037;-82
2023/11/16 03:49:01;;;;;;;0.50;0.50;;;6.00;99.90;;;;;;5026781;28;20043;-83
2023/11/16 03:51:29;;;;;;;;;;;6.20;99.90;;;;;;5056815;28;20044;-82
2023/11/16 03:53:57;;;;;;;0.57;0.57;;;6.20;99.90;;;;;;5042832;28;20023;-82
2023/11/16 03:56:23;;;;;;;0.47;0.47;;;6.10;99.90;;;;;;5038463;28;20087;-81
2023/11/16 03:58:48;;;;;;;0.50;0.50;;;6.50;99.90;;;;;;5009432;28;20044;-82
2023/11/16 04:01:14;;;;;;;0.60;0.60;;;6.60;99.90;;;;;;5050559;28;20091;-84
2023/11/16 04:03:42;;;;;;;0.60;0.60;;;5.90;99.90;;;;;;5024075;28;20156;-84
2023/11/16 04:06:17;;;;;;;0.50;0.50;;;;;;;;;;5035593;28;20713;-81
2023/11/16 04:08:43;;;;;;;0.55;0.55;;;5.70;99.90;;;;;;5056144;28;20052;-84
2023/11/16 04:11:10;;;;;;;0.40;0.40;;;5.70;99.90;;;;;;5034711;28;20107;-83
2023/11/16 04:13:36;;;;;;;0.60;0.60;;;5.60;99.90;;;;;;5020656;28;20037;-84
2023/11/16 04:16:02;;;;;;;1.33;1.27;;;5.60;99.90;;;;;;5020363;28;20044;-84
2023/11/16 04:18:27;;;;;;;0.60;0.60;;;5.70;99.90;;;;;;5021418;28;20086;-83
2023/11/16 04:20:53;;;;;;;0.52;0.52;;;5.70;99.90;;;;;;5055400;28;20049;-83
2023/11/16 04:23:19;;;;;;;0.80;0.80;;;5.70;99.90;;;;;;5021061;28;20091;-81
2023/11/16 04:25:45;;;;;;;0.50;0.50;;;5.80;99.90;;;;;;5017968;28;20044;-82
2023/11/16 04:28:13;;;;;;;0.52;0.52;;;5.80;99.90;;;;;;5054488;28;20040;-82
2023/11/16 04:30:39;;;;;;;0.50;0.50;;;5.80;99.90;;;;;;5050177;28;20102;-81
2023/11/16 04:33:04;;;;;;;0.47;0.47;;;5.80;99.90;;;;;;5043122;28;20048;-81
2023/11/16 04:35:30;;;;;;;0.50;0.50;;;5.80;99.90;;;;;;5074610;28;20085;-79
2023/11/16 04:37:58;;;;;;;0.50;0.50;;;5.80;99.90;;;;;;5037690;28;20564;-81
2023/11/16 04:40:24;;;;;;;0.50;0.50;;;6.20;99.90;;;;;;5046879;28;20060;-79
2023/11/16 04:42:50;;;;;;;0.45;0.45;;;5.80;99.90;;;;;;5021025;28;20176;-82
2023/11/16 04:45:18;;;;;;;0.60;0.60;;;6.00;99.90;;;;;;5034961;28;20474;-79
2023/11/16 04:47:45;;;;;;;0.60;0.60;;;5.80;99.90;;;;;;5052160;28;20079;-80
2023/11/16 04:50:16;;;;;;;0.57;0.57;;;5.90;99.90;;;;;;5039543;28;20488;-79
2023/11/16 04:52:46;;;;;;;0.43;0.43;;;6.00;99.90;;;;;;5031023;28;20048;-79
2023/11/16 04:55:12;;;;;;;0.50;0.50;;;6.00;99.90;;;;;;5046542;28;20038;-82
2023/11/16 04:57:38;;;;;;;;;;;6.10;99.90;;;;;;5030627;28;20052;-82
2023/11/16 05:00:11;;;;;;;0.45;0.45;;;6.10;99.90;;;;;;5032233;28;19921;-84
2023/11/16 05:02:39;;;;;;;0.40;0.40;;;6.10;99.90;;;;;;5030056;28;20096;-82
2023/11/16 05:05:06;;;;;;;0.50;0.50;;;6.00;99.90;;;;;;5036059;28;20127;-80
2023/11/16 05:07:32;;;;;;;0.40;0.40;;;5.90;99.90;;;;;;5019719;28;20387;-82
2023/11/16 05:09:58;;;;;;;0.57;0.57;;;5.80;99.90;;;;;;5035746;28;20036;-82
2023/11/16 05:12:25;;;;;;;0.50;0.50;;;5.70;99.90;;;;;;5002689;28;20049;-84
2023/11/16 05:14:53;;;;;;;0.50;0.50;;;5.70;99.90;;;;;;5044017;28;20115;-81
2023/11/16 05:17:19;;;;;;;0.60;0.60;;;5.60;99.90;;;;;;5052235;28;20052;-83
2023/11/16 05:19:45;;;;;;;0.50;0.50;;;5.50;99.90;;;;;;5021361;28;20171;-82
2023/11/16 05:22:11;;;;;;;0.55;0.55;;;5.50;99.90;;;;;;5039611;28;20547;-81
2023/11/16 05:24:36;;;;;;;0.50;0.50;;;5.50;99.90;;;;;;5025466;28;20045;-80
2023/11/16 05:27:02;;;;;;;0.60;0.60;;;6.30;99.90;;;;;;5029361;28;20066;-80
2023/11/16 05:29:29;;;;;;;0.60;0.60;;;5.50;99.90;;;;;;5063359;28;20104;-83
2023/11/16 05:31:57;;;;;;;0.60;0.60;;;5.60;99.90;;;;;;5031557;28;20045;-82
2023/11/16 05:34:23;;;;;;;0.50;0.50;;;5.60;99.90;;;;;;5013779;28;20033;-84
2023/11/16 05:36:49;;;;;;;0.50;0.50;;;5.60;99.90;;;;;;5022799;28;20398;-82
2023/11/16 05:39:16;;;;;;;0.50;0.50;;;5.50;99.90;;;;;;5011609;28;20038;-83
2023/11/16 05:41:42;;;;;;;1.92;1.83;;;5.50;99.90;;;;;;5036575;28;20032;-83
2023/11/16 05:44:07;;;;;;;0.50;0.50;;;5.50;99.90;;;;;;5034730;28;20116;-83
2023/11/16 05:46:33;;;;;;;0.43;0.43;;;5.40;99.90;;;;;;5037617;28;20036;-82
2023/11/16 05:48:59;;;;;;;0.57;0.57;;;5.30;99.90;;;;;;5045157;28;20101;-82
2023/11/16 05:51:25;;;;;;;0.60;0.60;;;5.30;99.90;;;;;;5026555;28;20041;-83
2023/11/16 05:53:50;;;;;;;0.60;0.60;;;5.20;99.90;;;;;;5020179;28;20036;-84
2023/11/16 05:56:16;;;;;;;0.60;0.60;;;5.10;99.90;;;;;;5060044;28;20079;-82
2023/11/16 05:58:42;;;;;;;0.50;0.50;;;4.90;99.90;;;;;;5021527;28;20524;-81
2023/11/16 06:01:13;;;;;;;0.50;0.50;;;5.20;99.90;;;;;;5040242;28;20469;-83
2023/11/16 06:03:39;;;;;;;0.60;0.60;;;4.70;99.90;;;;;;5039606;28;20033;-83
2023/11/16 06:06:05;;;;;;;0.60;0.60;;;4.60;99.90;;;;;;5014754;28;20059;-82
2023/11/16 06:08:31;;;;;;;0.50;0.50;;;4.50;99.90;;;;;;5043629;28;20041;-81
2023/11/16 06:10:59;;;;;;;0.55;0.55;;;4.50;99.90;;;;;;5042994;28;20117;-83
2023/11/16 06:13:26;;;;;;;0.60;0.60;;;4.30;99.90;;;;;;5031926;28;20040;-83
2023/11/16 06:15:52;;;;;;;0.60;0.60;;;4.20;99.90;;;;;;5026436;28;20048;-82
2023/11/16 06:18:18;;;;;;;0.60;0.60;;;4.20;99.90;;;;;;5022881;28;20032;-83
2023/11/16 06:20:45;;;;;;;0.70;0.70;;;4.10;99.90;;;;;;5044960;28;20046;-84
2023/11/16 06:23:12;;;;;;;0.50;0.50;;;4.10;99.90;;;;;;5041247;28;20060;-84
2023/11/16 06:25:38;;;;;;;0.60;0.60;;;4.10;99.90;;;;;;5043085;28;20082;-83
2023/11/16 06:28:04;;;;;;;0.50;0.50;;;4.00;99.90;;;;;;5013497;28;20044;-80
2023/11/16 06:30:30;;;;;;;0.60;0.60;;;4.10;99.90;;;;;;5051437;28;20482;-79
2023/11/16 06:32:56;;;;;;;0.60;0.60;;;4.90;99.90;;;;;;5054269;28;20076;-82
2023/11/16 06:35:22;;;;;;;;;;;4.20;99.90;;;;;;5050631;28;20139;-79
2023/11/16 06:37:48;;;;;;;0.65;0.65;;;4.20;99.90;;;;;;5052963;28;19921;-82
2023/11/16 06:40:14;;;;;;;0.70;0.70;;;4.50;99.90;;;;;;5057593;28;20045;-81
2023/11/16 06:42:40;;;;;;;0.70;0.70;;;4.30;99.90;;;;;;5059547;28;20071;-82
2023/11/16 06:45:07;;;;;;;0.60;0.60;;;4.60;99.90;;;;;;5056655;28;20451;-85
2023/11/16 06:47:34;;;;;;;0.80;0.80;;;4.30;99.90;;;;;;5036961;28;20479;-83
2023/11/16 06:50:03;;;;;;;0.65;0.65;;;4.30;99.90;;;;;;5034176;28;20045;-81
2023/11/16 06:52:29;;;;;;;0.70;0.70;;;4.40;99.90;;;;;;5033040;28;20048;-80
2023/11/16 06:54:54;;;;;;;0.40;0.40;;;5.20;99.90;;;;;;5040815;28;20037;-81
2023/11/16 06:57:22;;;;;;;0.40;0.40;;;4.40;99.90;;;;;;5030690;28;20042;-83
2023/11/16 06:59:53;;;;;;;0.50;0.50;;;4.90;99.90;;;;;;5029125;28;20056;-85
2023/11/16 07:02:19;;;;;;;0.60;0.60;;;4.40;99.90;;;;;;5034675;28;20490;-83
2023/11/16 07:04:47;;;;;;;0.52;0.52;;;4.30;99.90;;;;;;5027820;28;20042;-83
2023/11/16 07:07:13;;;;;;;0.60;0.60;;;4.30;99.90;;;;;;5040067;28;20049;-84
2023/11/16 07:09:44;;;;;;;0.40;0.40;;;4.30;99.90;;;;;;5020805;28;20075;-81
2023/11/16 07:12:09;;;;;;;0.70;0.70;;;4.20;99.90;;;;;;5053825;28;20569;-80
2023/11/16 07:14:35;;;;;;;0.50;0.50;;;4.20;99.90;;;;;;5050687;28;20049;-80
2023/11/16 07:17:01;;;;;;;0.50;0.50;;;4.20;99.90;;;;;;5055920;28;20081;-82
2023/11/16 07:19:27;;;;;;;0.50;0.50;;;4.30;99.90;;;;;;5042132;28;20075;-80
2023/11/16 07:21:53;;;;;;;0.45;0.45;;;4.20;99.90;;;;;;5037389;28;20132;-80
2023/11/16 07:24:18;;;;;;;;;;;4.30;99.90;;;;;;5043734;28;20063;-85
2023/11/16 07:26:45;;;;;;;0.40;0.40;;;4.40;99.90;;;;;;5071534;28;19923;-83
2023/11/16 07:29:10;;;;;;;0.50;0.50;;;4.50;99.90;;;;;;5068821;28;20041;-83
2023/11/16 07:31:37;;;;;;;0.45;0.45;;;4.50;99.90;;;;;;5037455;28;20456;-85
2023/11/16 07:34:03;;;;;;;0.55;0.55;;;4.60;99.90;;;;;;5033477;28;20164;-86
2023/11/16 07:36:29;;;;;;;0.50;0.50;;;4.60;99.90;;;;;;5010178;28;20049;-87
2023/11/16 07:38:56;;;;;;;0.60;0.60;;;5.10;99.90;;;;;;5027173;28;20128;-85
2023/11/16 07:41:22;;;;;;;0.60;0.60;;;4.70;99.90;;;;;;5058520;28;20534;-88
2023/11/16 07:43:48;;;;;;;0.40;0.40;;;4.80;99.90;;;;;;5017533;28;20129;-84
2023/11/16 07:46:14;;;;;;;2.13;0.65;;;5.40;99.90;;;;;;5044909;28;20044;-86
2023/11/16 07:48:43;;;;;;;0.57;0.57;;;5.30;99.90;;;;;;5025519;28;20047;-82
2023/11/16 07:51:09;;;;;;;0.50;0.50;;;5.10;99.90;;;;;;5036506;28;20430;-81
2023/11/16 07:53:36;;;;;;;0.65;0.65;;;5.10;99.90;;;;;;5055662;28;20033;-82
2023/11/16 07:56:05;;;;;;;0.55;0.55;;;5.20;99.90;;;;;;5031224;28;20028;-82
2023/11/16 07:58:34;;;;;;;0.60;0.60;;;5.20;99.90;;;;;;5037402;28;20476;-84
2023/11/16 08:01:12;;;;;;;0.45;0.45;;;5.30;99.90;;;;;;5040242;28;20041;-82
2023/11/16 08:03:44;;;;;;;0.60;0.60;;;5.50;99.90;;;;;;5012075;28;20037;-81
2023/11/16 08:06:14;;;;;;;0.57;0.57;;;5.50;99.90;;;;;;5053346;28;20048;-80
2023/11/16 08:08:49;;;;;;;0.50;0.50;;;5.30;99.90;;;;;;5048356;28;20114;-82
2023/11/16 08:11:16;;;;;;;0.47;0.47;;;5.30;99.90;;;;;;5051167;28;20084;-82
2023/11/16 08:13:45;;;;;;;0.40;0.40;;;5.30;99.90;;;;;;5020829;28;20049;-82
2023/11/16 08:16:21;;;;;;;0.50;0.50;;;5.20;99.90;;;;;;5052177;28;20036;-82
2023/11/16 08:18:50;;;;;;;0.43;0.43;;;5.20;99.90;;;;;;5048322;28;20056;-81
2023/11/16 08:21:19;;;;;;;0.60;0.60;;;5.30;99.90;;;;;;5027084;28;20113;-82
2023/11/16 08:23:45;;;;;;;0.50;0.50;;;5.00;99.90;;;;;;5043592;28;20053;-83
2023/11/16 08:26:12;;;;;;;;;;;5.00;99.90;;;;;;5043718;28;20107;-80
2023/11/16 08:28:40;;;;;;;0.50;0.50;;;4.90;99.90;;;;;;5023501;28;19925;-82
2023/11/16 08:31:06;;;;;;;0.43;0.43;;;4.90;99.90;;;;;;5020807;28;20606;-82
2023/11/16 08:33:37;;;;;;;0.60;0.60;;;4.80;99.90;;;;;;5021551;28;20040;-80
2023/11/16 08:36:03;;;;;;;0.60;0.60;;;4.80;99.90;;;;;;5039152;28;20076;-81
2023/11/16 08:38:29;;;;;;;0.50;0.50;;;4.70;99.90;;;;;;5041233;28;20076;-82
2023/11/16 08:40:58;;;;;;;0.60;0.60;;;4.70;99.90;;;;;;5038559;28;20041;-83
2023/11/16 08:43:27;;;;;;;0.40;0.40;;;4.80;99.90;;;;;;5049061;28;20106;-83
2023/11/16 08:45:57;;;;;;;0.60;0.60;;;4.70;99.90;;;;;;5043558;28;20053;-84
2023/11/16 08:48:32;;;;;;;0.40;0.40;;;4.80;99.90;;;;;;5039873;28;20407;-83
2023/11/16 08:50:58;;;;;;;0.50;0.50;;;4.90;99.90;;;;;;5036962;28;20049;-80
2023/11/16 08:53:27;;;;;;;0.60;0.60;;;4.90;99.90;;;;;;5038785;28;20564;-83
2023/11/16 08:55:55;;;;;;;0.50;0.50;;;4.40;99.90;;;;;;5024398;28;20099;-82
2023/11/16 08:58:22;;;;;;;0.88;0.88;;;5.00;99.90;;;;;;5031888;28;20077;-83
2023/11/16 09:00:48;;;;;;;0.50;0.50;;;5.40;99.90;;;;;;5028129;28;20053;-83
2023/11/16 09:03:14;;;;;;;0.60;0.60;;;5.20;99.90;;;;;;5023117;28;20037;-83
2023/11/16 09:05:40;;;;;;;0.50;0.50;;;5.30;99.90;;;;;;5026564;28;20052;-83
2023/11/16 09:08:10;;;;;;;0.60;0.60;;;5.40;99.90;;;;;;5046551;28;20052;-85
2023/11/16 09:10:37;;;;;;;0.50;0.50;;;5.90;99.90;;;;;;5041625;28;20094;-83
2023/11/16 09:13:03;;;;;;;0.45;0.45;;;5.60;99.90;;;;;;5054393;28;20060;-85
2023/11/16 09:15:30;;;;;;;0.50;0.50;;;5.80;99.90;;;;;;5056715;28;20040;-83
2023/11/16 09:17:58;;;;;;;0.60;0.60;;;6.10;99.90;;;;;;5050451;28;20060;-84
2023/11/16 09:20:25;;;;;;;7.30;0.95;;;5.90;99.90;;;;;;5035703;28;20036;-84
2023/11/16 09:22:53;;;;;;;0.50;0.50;;;6.00;99.90;;;;;;5033377;28;20041;-83
2023/11/16 09:25:19;;;;;;;0.60;0.60;;;6.10;99.90;;;;;;5046867;28;20391;-82
2023/11/16 09:27:54;;;;;;;0.50;0.50;;;6.30;99.90;;;;;;5042128;28;20439;-84
2023/11/16 09:30:22;;;;;;;0.50;0.50;;;6.40;99.90;;;;;;5034270;28;20044;-86
2023/11/16 09:32:52;;;;;;;0.50;0.50;;;6.60;99.90;;;;;;5046674;28;20048;-83
2023/11/16 09:35:21;;;;;;;0.40;0.40;;;6.70;99.90;;;;;;5038509;28;20044;-84
2023/11/16 09:37:55;;;;;;;0.50;0.50;;;6.90;99.90;;;;;;5036167;28;20537;-83
2023/11/16 09:40:24;;;;;;;0.50;0.50;;;7.40;99.90;;;;;;5030845;28;20041;-84
2023/11/16 09:42:57;;;;;;;0.40;0.40;;;7.60;99.90;;;;;;5023603;28;20041;-83
2023/11/16 09:45:29;;;;;;;0.95;0.95;;;7.60;99.90;;;;;;5037632;28;20045;-84
2023/11/16 09:48:10;;;;;;;0.50;0.50;;;7.70;99.90;;;;;;5053406;28;20120;-84
2023/11/16 09:50:42;;;;;;;0.40;0.40;;;7.80;99.90;;;;;;5053561;28;20104;-84
2023/11/16 09:53:13;;;;;;;1.38;1.30;;;7.80;99.90;;;;;;5063262;28;20137;-82
2023/11/16 09:55:41;;;;;;;0.40;0.40;;;7.80;99.90;;;;;;5043098;28;20048;-84
2023/11/16 09:58:11;;;;;;;0.77;0.77;;;7.80;99.90;;;;;;5062627;28;20212;-83
2023/11/16 10:00:39;;;;;;;0.40;0.40;;;8.10;99.90;;;;;;5053701;28;20121;-86
2023/11/16 10:03:06;;;;;;;0.40;0.40;;;8.00;99.90;;;;;;5064180;28;20094;-84
2023/11/16 10:05:42;;;;;;;1.13;1.13;;;8.00;99.90;;;;;;5059299;28;20091;-85
2023/11/16 10:08:14;;;;;;;0.70;0.70;;;8.00;99.90;;;;;;5041063;28;20106;-84
2023/11/16 10:10:57;;;;;;;0.30;0.30;;;7.90;99.90;;;;;;5028389;28;20060;-85
2023/11/16 10:13:24;;;;;;;0.45;0.45;;;7.90;99.90;;;;;;5038294;28;20356;-83
2023/11/16 10:15:52;;;;;;;0.22;0.22;;;7.80;99.90;;;;;;5070551;28;20025;-85
2023/11/16 10:18:19;;;;;;;0.50;0.50;;;7.70;99.90;;;;;;5040905;28;20494;-84
2023/11/16 10:20:45;;;;;;;0.50;0.50;;;7.70;99.90;;;;;;5038933;28;20045;-84
2023/11/16 10:23:14;;;;;;;1.05;0.70;;;7.70;99.90;;;;;;5032148;28;20099;-85
2023/11/16 10:25:41;;;;;;;0.50;0.50;;;7.90;99.90;;;;;;5049849;28;20037;-84
2023/11/16 10:28:14;;;;;;;0.40;0.40;;;7.90;99.90;;;;;;5013821;28;20146;-84
2023/11/16 10:30:45;;;;;;;0.40;0.40;;;7.90;99.90;;;;;;5057302;28;20045;-84
2023/11/16 10:33:11;;;;;;;0.50;0.50;;;8.00;99.90;;;;;;5038275;28;20065;-84
2023/11/16 10:35:39;;;;;;;0.40;0.40;;;8.10;99.90;;;;;;5048504;28;20097;-85
2023/11/16 10:38:06;;;;;;;0.47;0.47;;;;;;;;;;5043689;28;20076;-84
2023/11/16 10:40:33;;;;;;;0.35;0.35;;;;;;;;;;5017273;28;20038;-84
2023/11/16 10:43:01;;;;;;;0.73;0.73;;;;;;;;;;5071620;28;20045;-81
2023/11/16 10:45:27;;;;;;;0.60;0.60;;;;;;;;;;5069597;28;20042;-84
2023/11/16 10:47:53;;;;;;;0.60;0.60;;;8.40;99.90;;;;;;5062936;28;20052;-85
2023/11/16 10:50:19;;;;;;;0.40;0.40;;;8.40;99.90;;;;;;5046733;28;20049;-84
2023/11/16 10:52:47;;;;;;;0.50;0.50;;;8.30;99.90;;;;;;5039833;28;20044;-84
2023/11/16 10:55:21;;;;;;;0.43;0.43;;;8.30;99.90;;;;;;5058331;28;20138;-85
2023/11/16 10:57:58;;;;;;;0.30;0.30;;;8.30;99.90;;;;;;5025716;28;20041;-84
2023/11/16 11:00:26;;;;;;;;;;;8.30;99.90;;;;;;5045674;28;20510;-81
2023/11/16 11:02:53;;;;;;;0.50;0.50;;;8.30;99.90;;;;;;5042017;28;19964;-82
2023/11/16 11:05:19;;;;;;;0.40;0.40;;;8.30;99.90;;;;;;5050601;28;20040;-85
2023/11/16 11:07:50;;;;;;;0.60;0.60;;;8.30;99.90;;;;;;5037139;28;20080;-83
2023/11/16 11:10:22;;;;;;;0.40;0.40;;;8.30;99.90;;;;;;5032113;28;20041;-83
2023/11/16 11:12:48;;;;;;;0.30;0.30;;;8.40;99.90;;;;;;5036236;28;20046;-83
2023/11/16 11:15:25;;;;;;;0.60;0.60;;;8.40;99.90;;;;;;5054958;28;20107;-84
2023/11/16 11:17:55;;;;;;;0.35;0.35;;;8.40;99.90;;;;;;5054427;28;20047;-83
2023/11/16 11:20:39;;;;;;;0.52;0.52;;;8.40;99.90;;;;;;5036151;28;20344;-83
2023/11/16 11:23:19;;;;;;;0.40;0.40;;;8.40;99.90;;;;;;5053061;28;20076;-83
2023/11/16 11:25:46;;;;;;;0.40;0.40;;;8.40;99.90;;;;;;5030223;28;20041;-85
2023/11/16 11:28:15;;;;;;;0.50;0.50;;;8.30;99.90;;;;;;5053074;28;20041;-83
2023/11/16 11:30:54;;;;;;;0.40;0.40;;;8.70;99.90;;;;;;5037106;28;20079;-83
2023/11/16 11:33:23;;;;;;;0.35;0.35;;;8.10;99.90;;;;;;5038803;28;20041;-82
2023/11/16 11:35:52;;;;;;;0.47;0.47;;;8.00;99.90;;;;;;5049767;28;20124;-83
2023/11/16 11:38:27;;;;;;;0.50;0.50;;;8.00;99.90;;;;;;5043847;28;20048;-84
2023/11/16 11:41:06;;;;;;;0.40;0.40;;;7.80;99.90;;;;;;5058844;28;20072;-84
2023/11/16 11:43:38;;;;;;;0.40;0.40;;;7.70;99.90;;;;;;5061476;28;20049;-85
2023/11/16 11:46:11;;;;;;;0.40;0.40;;;7.60;99.90;;;;;;5066370;28;20040;-85
2023/11/16 11:48:37;;;;;;;0.30;0.30;;;7.60;99.90;;;;;;5064537;28;20496;-84
2023/11/16 11:51:05;;;;;;;0.50;0.50;;;7.60;99.90;;;;;;5049626;28;20495;-83
2023/11/16 11:53:34;;;;;;;0.50;0.50;;;7.60;99.90;;;;;;5039658;28;20043;-83
2023/11/16 11:56:06;;;;;;;0.60;0.60;;;7.60;99.90;;;;;;5039696;28;20048;-85
2023/11/16 11:58:32;;;;;;;0.40;0.40;;;7.60;99.90;;;;;;5044420;28;20040;-84
2023/11/16 12:00:59;;;;;;;0.40;0.40;;;8.40;99.90;;;;;;5040755;28;20044;-85
2023/11/16 12:03:25;;;;;;;0.40;0.40;;;7.70;99.90;;;;;;5017659;28;20100;-85
2023/11/16 12:06:09;;;;;;;0.50;0.50;;;7.80;99.90;;;;;;5050392;28;20415;-83
2023/11/16 12:08:43;;;;;;;0.50;0.50;;;7.90;99.90;;;;;;5053545;28;20095;-84
2023/11/16 12:11:10;;;;;;;0.30;0.30;;;8.00;99.90;;;;;;5033234;28;20052;-84
2023/11/16 12:13:38;;;;;;;0.40;0.40;;;8.10;99.90;;;;;;5055311;28;20075;-85
2023/11/16 12:16:08;;;;;;;0.50;0.50;;;8.10;99.90;;;;;;5042726;28;20125;-84
2023/11/16 12:18:35;;;;;;;0.45;0.45;;;8.20;99.90;;;;;;5056615;28;20040;-85
2023/11/16 12:21:25;;;;;;;0.40;0.40;;;8.20;99.90;;;;;;5043057;28;20168;-84
2023/11/16 12:23:55;;;;;;;0.40;0.40;;;8.30;99.90;;;;;;5011157;28;20041;-86
2023/11/16 12:26:27;;;;;;;0.40;0.40;;;8.40;99.90;;;;;;5044308;28;20037;-83
2023/11/16 12:28:55;;;;;;;0.40;0.40;;;8.40;99.90;;;;;;5042799;28;20041;-84
2023/11/16 12:31:21;;;;;;;0.40;0.40;;;8.50;99.90;;;;;;5045587;28;20498;-83
2023/11/16 12:33:50;;;;;;;0.50;0.50;;;8.50;99.90;;;;;;5054861;28;20045;-85
2023/11/16 12:36:20;;;;;;;0.40;0.40;;;8.60;99.90;;;;;;5018774;28;20033;-85
2023/11/16 12:38:50;;;;;;;0.45;0.45;;;8.60;99.90;;;;;;5035491;28;20107;-84
2023/11/16 12:41:16;;;;;;;0.40;0.40;;;8.60;99.90;;;;;;5023093;28;20049;-83
2023/11/16 12:43:43;;;;;;;0.40;0.40;;;8.60;99.90;;;;;;5035839;28;20064;-83
2023/11/16 12:46:11;;;;;;;0.40;0.40;;;8.60;99.90;;;;;;5036102;28;20150;-86
2023/11/16 12:48:38;;;;;;;0.40;0.40;;;8.70;99.90;;;;;;5026788;28;20049;-84
2023/11/16 12:51:04;;;;;;;0.40;0.40;;;8.70;99.90;;;;;;5032883;28;20041;-81
2023/11/16 12:53:38;;;;;;;0.30;0.30;;;8.70;99.90;;;;;;5041459;28;20045;-84
2023/11/16 12:56:07;;;;;;;0.32;0.32;;;8.80;99.90;;;;;;5040437;28;20045;-82
2023/11/16 12:58:36;;;;;;;0.40;0.40;;;8.80;99.90;;;;;;5039165;28;20457;-84
2023/11/16 13:01:02;;;;;;;0.40;0.40;;;8.90;99.90;;;;;;5048700;28;20498;-85
2023/11/16 13:03:30;;;;;;;0.35;0.35;;;9.00;99.90;;;;;;5007692;28;20487;-83
2023/11/16 13:06:00;;;;;;;0.30;0.30;;;8.90;99.90;;;;;;5053812;28;20045;-84